createdAt,value
2022-12-27T00:00:37.119Z,3.18
2022-12-27T00:03:42.671Z,3.08
2022-12-27T00:06:47.542Z,3.14
2022-12-27T00:09:53.609Z,3.13
2022-12-27T00:12:57.987Z,3.10
2022-12-27T00:16:16.500Z,3.11
2022-12-27T00:19:21.137Z,3.01
2022-12-27T00:22:25.397Z,3.01
2022-12-27T00:25:29.598Z,3.03
2022-12-27T00:28:35.110Z,3.07
2022-12-27T00:31:40.213Z,3.08
2022-12-27T00:34:45.387Z,3.09
2022-12-27T00:37:49.785Z,3.07
2022-12-27T00:40:54.427Z,3.08
2022-12-27T00:43:58.472Z,3.14
2022-12-27T00:47:02.752Z,3.16
2022-12-27T00:50:07.595Z,3.19
2022-12-27T00:53:12.853Z,3.21
2022-12-27T00:56:23.018Z,3.18
2022-12-27T00:59:27.565Z,3.12
2022-12-27T01:02:32.013Z,3.07
2022-12-27T01:05:37.577Z,3.18
2022-12-27T01:08:43.046Z,3.06
2022-12-27T01:11:47.646Z,3.20
2022-12-27T01:14:52.118Z,3.28
2022-12-27T01:17:56.847Z,3.27
2022-12-27T01:21:06.827Z,3.14
2022-12-27T01:24:11.257Z,3.07
2022-12-27T01:27:15.642Z,3.05
2022-12-27T01:30:19.726Z,2.95
2022-12-27T01:33:24.295Z,2.96
2022-12-27T01:36:30.649Z,2.89
2022-12-27T01:39:35.088Z,2.88
2022-12-27T01:42:55.575Z,2.84
2022-12-27T01:46:00.105Z,2.82
2022-12-27T01:49:05.340Z,2.85
2022-12-27T01:52:12.212Z,2.79
2022-12-27T01:55:49.395Z,2.82
2022-12-27T01:59:08.200Z,2.86
2022-12-27T02:02:12.909Z,2.74
2022-12-27T02:05:22.282Z,2.82
2022-12-27T02:08:39.015Z,2.85
2022-12-27T02:11:55.195Z,2.91
2022-12-27T02:15:02.168Z,2.87
2022-12-27T02:18:06.769Z,2.78
2022-12-27T02:21:49.696Z,2.85
2022-12-27T02:25:15.149Z,2.74
2022-12-27T02:28:46.888Z,2.80
2022-12-27T02:31:56.209Z,2.76
2022-12-27T02:35:21.631Z,2.77
2022-12-27T02:38:37.873Z,2.64
2022-12-27T02:42:01.806Z,2.62
2022-12-27T02:45:38.535Z,2.70
2022-12-27T02:49:14.949Z,2.72
2022-12-27T02:53:09.587Z,2.72
2022-12-27T02:56:38.786Z,2.57
2022-12-27T03:00:25.052Z,2.49
2022-12-27T03:03:55.676Z,2.43
2022-12-27T03:07:39.598Z,2.33
2022-12-27T03:11:17.100Z,2.32
2022-12-27T03:14:58.776Z,2.43
2022-12-27T03:18:13.341Z,2.47
2022-12-27T03:21:58.009Z,2.49
2022-12-27T03:25:26.427Z,2.41
2022-12-27T03:28:51.509Z,2.41
2022-12-27T03:32:19.707Z,2.40
2022-12-27T03:35:31.784Z,2.43
2022-12-27T03:38:47.124Z,2.36
2022-12-27T03:42:27.724Z,2.36
2022-12-27T03:46:16.947Z,2.47
2022-12-27T03:49:36.790Z,2.40
2022-12-27T03:53:10.267Z,2.48
2022-12-27T03:56:17.700Z,2.34
2022-12-27T03:59:22.544Z,2.35
2022-12-27T04:02:27.177Z,2.38
2022-12-27T04:05:31.628Z,2.35
2022-12-27T04:08:54.423Z,2.48
2022-12-27T04:12:17.526Z,2.52
2022-12-27T04:15:40.804Z,2.60
2022-12-27T04:19:03.838Z,2.50
2022-12-27T04:22:26.467Z,2.60
2022-12-27T04:25:49.280Z,2.58
2022-12-27T04:29:13.630Z,2.52
2022-12-27T04:32:38.283Z,2.43
2022-12-27T04:35:42.592Z,2.36
2022-12-27T04:38:46.825Z,2.29
2022-12-27T04:42:09.732Z,2.31
2022-12-27T04:45:33.355Z,2.38
2022-12-27T04:48:56.339Z,2.37
2022-12-27T04:52:20.114Z,2.48
2022-12-27T04:55:30.353Z,2.45
2022-12-27T04:58:35.411Z,2.38
2022-12-27T05:01:59.367Z,2.33
2022-12-27T05:05:03.897Z,2.38
2022-12-27T05:08:27.243Z,2.42
2022-12-27T05:11:49.808Z,2.42
2022-12-27T05:14:54.263Z,2.45
2022-12-27T05:17:58.753Z,2.45
2022-12-27T05:21:07.861Z,2.49
2022-12-27T05:24:30.546Z,2.53
2022-12-27T05:27:34.769Z,2.55
2022-12-27T05:30:42.293Z,2.55
2022-12-27T05:33:47.129Z,2.64
2022-12-27T05:36:51.277Z,2.64
2022-12-27T05:39:55.522Z,2.64
2022-12-27T05:43:01.692Z,2.53
2022-12-27T05:46:16.552Z,2.50
2022-12-27T05:49:21.211Z,2.61
2022-12-27T05:52:25.790Z,2.63
2022-12-27T05:55:30.132Z,2.64
2022-12-27T05:58:35.275Z,2.62
2022-12-27T06:01:39.795Z,2.63
2022-12-27T06:04:44.495Z,2.56
2022-12-27T06:07:48.929Z,2.55
2022-12-27T06:11:07.632Z,2.48
2022-12-27T06:14:11.706Z,2.51
2022-12-27T06:17:15.876Z,2.52
2022-12-27T06:20:20.720Z,2.61
2022-12-27T06:23:25.140Z,2.68
2022-12-27T06:26:30.205Z,2.81
2022-12-27T06:29:34.512Z,2.85
2022-12-27T06:32:38.995Z,2.89
2022-12-27T06:35:43.382Z,2.86
2022-12-27T06:38:48.309Z,2.88
2022-12-27T06:41:55.248Z,2.84
2022-12-27T06:44:59.565Z,2.78
2022-12-27T06:48:04.239Z,2.68
2022-12-27T06:51:11.535Z,2.66
2022-12-27T06:54:16.391Z,2.74
2022-12-27T06:57:20.752Z,2.75
2022-12-27T07:00:25.227Z,2.78
2022-12-27T07:03:29.435Z,2.82
2022-12-27T07:06:37.498Z,2.78
2022-12-27T07:09:42.053Z,2.77
2022-12-27T07:12:46.828Z,2.69
2022-12-27T07:15:51.162Z,2.52
2022-12-27T07:18:58.176Z,2.53
2022-12-27T07:22:06.092Z,2.64
2022-12-27T07:25:10.610Z,2.75
2022-12-27T07:28:15.357Z,2.81
2022-12-27T07:31:26.466Z,2.85
2022-12-27T07:34:31.566Z,2.79
2022-12-27T07:37:54.879Z,2.75
2022-12-27T07:41:03.267Z,2.59
2022-12-27T07:44:09.782Z,2.38
2022-12-27T07:47:26.702Z,2.42
2022-12-27T07:50:53.906Z,2.41
2022-12-27T07:54:13.549Z,2.52
2022-12-27T07:57:34.053Z,2.59
2022-12-27T08:00:39.052Z,2.65
2022-12-27T08:03:44.203Z,2.80
2022-12-27T08:06:49.135Z,2.93
2022-12-27T08:09:53.450Z,3.05
2022-12-27T08:13:00.330Z,3.14
2022-12-27T08:16:20.004Z,3.16
2022-12-27T08:19:24.349Z,3.18
2022-12-27T08:22:28.867Z,3.08
2022-12-27T08:25:33.687Z,3.14
2022-12-27T08:28:38.364Z,3.14
2022-12-27T08:31:42.683Z,3.08
2022-12-27T08:34:53.743Z,3.20
2022-12-27T08:38:03.029Z,3.21
2022-12-27T08:41:08.239Z,3.26
2022-12-27T08:44:18.752Z,3.19
2022-12-27T08:47:23.313Z,3.10
2022-12-27T08:50:29.074Z,2.96
2022-12-27T08:53:34.162Z,2.91
2022-12-27T08:56:38.301Z,2.92
2022-12-27T08:59:42.529Z,2.90
2022-12-27T09:02:46.934Z,2.96
2022-12-27T09:05:51.439Z,3.05
2022-12-27T09:08:56.849Z,3.06
2022-12-27T09:12:03.137Z,3.05
2022-12-27T09:15:12.422Z,3.16
2022-12-27T09:18:16.706Z,3.11
2022-12-27T09:21:23.618Z,3.07
2022-12-27T09:24:27.790Z,3.11
2022-12-27T09:27:32.144Z,3.15
2022-12-27T09:30:40.377Z,3.19
2022-12-27T09:38:46.994Z,3.04
2022-12-27T09:42:52.559Z,3.08
2022-12-27T09:46:12.933Z,2.99
2022-12-27T09:49:39.762Z,2.97
2022-12-27T09:53:40.352Z,2.88
2022-12-27T09:57:18.377Z,2.86
2022-12-27T10:00:32.410Z,2.93
2022-12-27T10:03:40.400Z,2.97
2022-12-27T10:06:50.183Z,2.95
2022-12-27T10:10:05.384Z,2.93
2022-12-27T10:13:52.801Z,3.06
2022-12-27T10:17:26.248Z,3.21
2022-12-27T10:21:00.565Z,3.53
2022-12-27T10:24:23.901Z,3.69
2022-12-27T10:27:30.056Z,3.83
2022-12-27T10:30:34.622Z,3.82
2022-12-27T10:33:40.259Z,3.55
2022-12-27T10:36:48.709Z,3.39
2022-12-27T10:39:54.041Z,3.44
2022-12-27T10:43:26.909Z,3.41
2022-12-27T10:46:33.772Z,3.41
2022-12-27T10:49:42.951Z,3.33
2022-12-27T10:52:51.465Z,3.32
2022-12-27T10:56:13.569Z,3.24
2022-12-27T10:59:31.240Z,3.16
2022-12-27T11:02:50.899Z,3.11
2022-12-27T11:06:06.302Z,3.16
2022-12-27T11:09:38.981Z,3.46
2022-12-27T11:13:20.922Z,3.84
2022-12-27T11:16:31.992Z,3.62
2022-12-27T11:19:41.106Z,3.38
2022-12-27T11:23:02.381Z,3.43
2022-12-27T11:26:07.471Z,3.65
2022-12-27T11:29:18.433Z,3.88
2022-12-27T11:32:24.027Z,4.07
2022-12-27T11:35:28.586Z,3.98
2022-12-27T11:38:36.452Z,3.80
2022-12-27T11:41:54.543Z,3.73
2022-12-27T11:45:12.732Z,3.68
2022-12-27T11:48:33.395Z,3.56
2022-12-27T11:51:49.666Z,3.25
2022-12-27T11:55:18.698Z,3.21
2022-12-27T11:58:31.812Z,2.95
2022-12-27T12:02:42.977Z,3.01
2022-12-27T12:06:20.829Z,3.18
2022-12-27T12:09:51.561Z,3.43
2022-12-27T12:13:27.884Z,3.58
2022-12-27T12:17:04.424Z,3.84
2022-12-27T12:20:50.331Z,3.88
2022-12-27T12:24:29.574Z,3.77
2022-12-27T12:28:30.299Z,3.66
2022-12-27T12:31:59.216Z,3.65
2022-12-27T12:36:07.127Z,3.64
2022-12-27T12:39:37.406Z,3.81
2022-12-27T12:43:34.824Z,3.89
2022-12-27T12:46:55.828Z,3.76
2022-12-27T12:50:33.566Z,3.88
2022-12-27T12:54:11.895Z,3.95
2022-12-27T12:57:19.270Z,4.03
2022-12-27T13:01:07.826Z,4.07
2022-12-27T13:04:35.145Z,3.94
2022-12-27T13:07:51.542Z,4.00
2022-12-27T13:11:33.217Z,3.98
2022-12-27T13:14:58.643Z,3.92
2022-12-27T13:18:17.685Z,3.84
2022-12-27T13:22:08.885Z,3.93
2022-12-27T13:25:53.806Z,3.77
2022-12-27T13:29:37.278Z,3.79
2022-12-27T13:33:13.980Z,3.78
2022-12-27T13:36:41.758Z,3.76
2022-12-27T13:40:38.229Z,3.77
2022-12-27T13:43:42.612Z,3.81
2022-12-27T13:47:16.869Z,3.81
2022-12-27T13:50:57.724Z,3.81
2022-12-27T13:54:22.073Z,3.79
2022-12-27T13:58:13.945Z,3.77
2022-12-27T14:01:30.725Z,3.77
2022-12-27T14:05:01.611Z,3.75
2022-12-27T14:08:26.339Z,3.69
2022-12-27T14:12:01.100Z,3.56
2022-12-27T14:15:07.805Z,3.57
2022-12-27T14:18:47.765Z,3.56
2022-12-27T14:22:26.803Z,3.51
2022-12-27T14:26:11.790Z,3.62
2022-12-27T14:29:49.670Z,3.68
2022-12-27T14:33:50.154Z,3.65
2022-12-27T14:37:25.655Z,3.57
2022-12-27T14:41:27.221Z,3.51
2022-12-27T14:45:46.122Z,3.51
2022-12-27T14:49:28.709Z,3.52
2022-12-27T14:52:50.077Z,3.58
2022-12-27T14:56:50.108Z,3.58
2022-12-27T15:00:21.584Z,3.61
2022-12-27T15:03:56.707Z,3.58
2022-12-27T15:07:36.802Z,3.62
2022-12-27T15:11:01.826Z,3.63
2022-12-27T15:14:33.818Z,3.58
2022-12-27T15:18:12.619Z,3.57
2022-12-27T15:21:44.047Z,3.53
2022-12-27T15:25:28.255Z,3.44
2022-12-27T15:29:02.653Z,3.53
2022-12-27T15:32:31.813Z,3.53
2022-12-27T15:36:03.891Z,3.48
2022-12-27T15:39:33.501Z,3.50
2022-12-27T15:42:48.765Z,3.55
2022-12-27T15:46:32.496Z,3.56
2022-12-27T15:50:05.195Z,3.53
2022-12-27T15:53:48.625Z,3.50
2022-12-27T15:57:20.574Z,3.51
2022-12-27T16:00:33.359Z,3.52
2022-12-27T16:03:39.443Z,3.51
2022-12-27T16:06:43.935Z,3.47
2022-12-27T16:09:48.659Z,3.50
2022-12-27T16:12:57.508Z,3.48
2022-12-27T16:16:03.881Z,3.46
2022-12-27T16:19:11.133Z,3.46
2022-12-27T16:22:35.530Z,3.42
2022-12-27T16:25:42.318Z,3.43
2022-12-27T16:29:05.576Z,3.43
2022-12-27T16:32:28.349Z,3.43
2022-12-27T16:35:33.301Z,3.38
2022-12-27T16:39:09.220Z,3.36
2022-12-27T16:42:13.865Z,3.37
2022-12-27T16:45:36.266Z,3.35
2022-12-27T16:49:15.602Z,3.37
2022-12-27T16:52:51.267Z,3.44
2022-12-27T16:56:26.919Z,3.44
2022-12-27T17:00:03.854Z,3.35
2022-12-27T17:03:30.670Z,3.35
2022-12-27T17:06:37.890Z,3.34
2022-12-27T17:09:44.007Z,3.33
2022-12-27T17:13:07.798Z,3.32
2022-12-27T17:16:12.172Z,3.32
2022-12-27T17:19:21.606Z,3.32
2022-12-27T17:22:33.881Z,3.31
2022-12-27T17:25:54.383Z,3.28
2022-12-27T17:29:29.532Z,3.27
2022-12-27T17:33:16.805Z,3.30
2022-12-27T17:36:48.237Z,3.23
2022-12-27T17:40:22.047Z,3.25
2022-12-27T17:44:18.053Z,3.23
2022-12-27T17:48:06.059Z,3.24
2022-12-27T17:51:21.126Z,3.24
2022-12-27T17:54:44.643Z,3.29
2022-12-27T17:57:56.198Z,3.31
2022-12-27T18:01:02.851Z,3.33
2022-12-27T18:04:07.878Z,3.36
2022-12-27T18:07:15.065Z,3.35
2022-12-27T18:10:24.944Z,3.35
2022-12-27T18:13:43.780Z,3.36
2022-12-27T18:16:48.802Z,3.38
2022-12-27T18:19:54.952Z,3.44
2022-12-27T18:23:02.373Z,3.46
2022-12-27T18:26:15.555Z,3.54
2022-12-27T18:29:20.429Z,3.58
2022-12-27T18:32:25.803Z,3.59
2022-12-27T18:35:31.240Z,3.65
2022-12-27T18:38:41.741Z,3.70
2022-12-27T18:41:53.691Z,3.72
2022-12-27T18:45:08.230Z,3.76
2022-12-27T18:48:13.095Z,3.80
2022-12-27T18:51:17.552Z,3.84
2022-12-27T18:54:35.451Z,3.89
2022-12-27T18:57:40.200Z,3.94
2022-12-27T19:01:25.575Z,3.91
2022-12-27T19:04:33.912Z,3.94
2022-12-27T19:07:39.281Z,3.94
2022-12-27T19:10:50.591Z,3.94
2022-12-27T19:14:02.447Z,4.00
2022-12-27T19:17:34.454Z,4.04
2022-12-27T19:20:40.992Z,4.03
2022-12-27T19:23:49.376Z,4.03
2022-12-27T19:26:56.410Z,4.02
2022-12-27T19:30:00.663Z,4.02
2022-12-27T19:33:22.368Z,3.99
2022-12-27T19:36:33.692Z,4.00
2022-12-27T19:39:39.571Z,4.00
2022-12-27T19:42:44.752Z,3.99
2022-12-27T19:45:49.156Z,4.01
2022-12-27T19:49:31.694Z,4.04
2022-12-27T19:52:25.687Z,4.04
2022-12-27T19:55:30.285Z,4.06
2022-12-27T19:58:35.082Z,4.09
2022-12-27T20:01:39.308Z,4.10
2022-12-27T20:04:43.898Z,4.11
2022-12-27T20:07:48.142Z,4.13
2022-12-27T20:10:56.943Z,4.11
2022-12-27T20:14:02.228Z,4.15
2022-12-27T20:17:06.893Z,4.14
2022-12-27T20:20:11.805Z,4.12
2022-12-27T20:23:19.827Z,4.13
2022-12-27T20:26:25.825Z,4.16
2022-12-27T20:29:30.717Z,4.16
2022-12-27T20:32:35.056Z,4.13
2022-12-27T20:35:39.584Z,4.15
2022-12-27T20:38:44.752Z,4.18
2022-12-27T20:41:49.006Z,4.16
2022-12-27T20:44:53.410Z,4.19
2022-12-27T20:47:58.107Z,4.20
2022-12-27T20:51:11.296Z,4.19
2022-12-27T20:54:15.983Z,4.19
2022-12-27T20:57:20.361Z,4.21
2022-12-27T21:00:26.991Z,4.17
2022-12-27T21:03:31.515Z,4.18
2022-12-27T21:06:35.786Z,4.17
2022-12-27T21:09:40.043Z,4.15
2022-12-27T21:12:44.296Z,4.14
2022-12-27T21:15:49.861Z,4.13
2022-12-27T21:18:55.675Z,4.11
2022-12-27T21:22:02.751Z,4.16
2022-12-27T21:25:07.981Z,4.12
2022-12-27T21:28:12.291Z,4.15
2022-12-27T21:31:17.998Z,4.16
2022-12-27T21:34:22.810Z,4.12
2022-12-27T21:37:27.049Z,4.17
2022-12-27T21:40:31.713Z,4.17
2022-12-27T21:43:36.231Z,4.17
2022-12-27T21:46:42.626Z,4.21
2022-12-27T21:49:47.317Z,4.22
2022-12-27T21:52:51.432Z,4.26
2022-12-27T21:55:59.079Z,4.26
2022-12-27T21:59:07.241Z,4.27
2022-12-27T22:02:12.470Z,4.29
2022-12-27T22:05:17.295Z,4.29
2022-12-27T22:08:21.335Z,4.31
2022-12-27T22:11:28.518Z,4.35
2022-12-27T22:14:36.798Z,4.34
2022-12-27T22:17:41.651Z,4.35
2022-12-27T22:20:47.190Z,4.41
2022-12-27T22:23:53.944Z,4.41
2022-12-27T22:26:58.017Z,4.44
2022-12-27T22:30:04.036Z,4.47
2022-12-27T22:33:08.589Z,4.44
2022-12-27T22:36:16.902Z,4.47
2022-12-27T22:39:21.508Z,4.43
2022-12-27T22:42:25.810Z,4.48
2022-12-27T22:45:30.067Z,4.46
2022-12-27T22:48:34.693Z,4.49
2022-12-27T22:51:40.270Z,4.46
2022-12-27T22:55:05.928Z,4.48
2022-12-27T22:58:09.645Z,4.49
2022-12-27T23:01:25.113Z,4.49
2022-12-27T23:04:29.732Z,4.47
2022-12-27T23:08:05.185Z,4.54
2022-12-27T23:11:04.515Z,4.55
2022-12-27T23:14:15.507Z,4.57
2022-12-27T23:17:19.747Z,4.59
2022-12-27T23:20:23.601Z,4.61
2022-12-27T23:23:28.029Z,4.64
2022-12-27T23:26:32.687Z,4.67
2022-12-27T23:29:36.921Z,4.69
2022-12-27T23:32:41.231Z,4.69
2022-12-27T23:35:45.412Z,4.68
2022-12-27T23:38:50.115Z,4.71
2022-12-27T23:41:54.877Z,4.76
2022-12-27T23:44:59.449Z,4.75
2022-12-27T23:48:03.779Z,4.77
2022-12-27T23:51:09.527Z,4.80
2022-12-27T23:54:13.909Z,4.83
2022-12-27T23:57:19.867Z,4.85
